This is the latest recevied weather packets stored in our database for station/object DH9NFM-12. If no packets are shown the sender has not sent any weather packets the latest 10 day(s).
| Time | Temp. | Humidity | Pressure | Rain* | Wind** | Luminosity | Snow |
|---|---|---|---|---|---|---|---|
| 1788552906 | 21.67° C | 87% | 1013.2 hPa | 0 mm | - | - | - |
| 1788551032 | 21.67° C | 85% | 1013.3 hPa | 0 mm | - | - | - |
| 1788549158 | 21.67° C | 85% | 1013.1 hPa | 0 mm | - | - | - |
| 1788547284 | 22.22° C | 85% | 1012.9 hPa | 0 mm | - | - | - |
| 1788546659 | 22.22° C | 83% | 1012.9 hPa | 0 mm | - | - | - |
| 1788545410 | 22.78° C | 81% | 1012.9 hPa | 0 mm | - | - | - |
| 1788544161 | 23.33° C | 79% | 1012.7 hPa | 0 mm | - | - | - |
| 1788540413 | 24.44° C | 76% | 1012.8 hPa | 0 mm | - | - | - |
| 1788538539 | 23.89° C | 77% | 1013 hPa | 0 mm | - | - | - |
| 1788537914 | 24.44° C | 77% | 1013.1 hPa | 0 mm | - | - | - |
| 1788536040 | 25° C | 74% | 1013 hPa | 0 mm | - | - | - |
| 1788534166 | 25° C | 73% | 1012.9 hPa | 0 mm | - | - | - |
| 1788533542 | 24.44° C | 77% | 1013 hPa | 0 mm | - | - | - |
| 1788532292 | 25° C | 76% | 1013.1 hPa | 0 mm | - | - | - |
| 1788531668 | 24.44° C | 76% | 1013.3 hPa | 0 mm | - | - | - |
| 1788531043 | 25.56° C | 75% | 1013.4 hPa | 0 mm | - | - | - |
| 1788529794 | 24.44° C | 80% | 1013.5 hPa | 0 mm | - | - | - |
| 1788529169 | 24.44° C | 80% | 1013.6 hPa | 0 mm | - | - | - |
| 1788528544 | 25° C | 82% | 1013.7 hPa | 0 mm | - | - | - |
| 1788527295 | 25° C | 82% | 1013.9 hPa | 0 mm | - | - | - |
| 1788526046 | 24.44° C | 82% | 1014.2 hPa | 0 mm | - | - | - |
| 1788524796 | 25° C | 86% | 1014.5 hPa | 0 mm | - | - | - |
| 1788524172 | 24.44° C | 90% | 1014.7 hPa | 0 mm | - | - | - |
| 1788523547 | 23.89° C | 93% | 1014.9 hPa | 0 mm | - | - | - |
| 1788522923 | 23.33° C | 96% | 1015 hPa | 0 mm | - | - | - |
* Rain latest hour (hover to see other rain measurements)
** Current wind speed in m/s (hover to see current wind gust speed)